Time;durP1;ratioP1;P1;durP2;ratioP2;P2;SDS_P1;SDS_P2;PMS_P1;PMS_P2;Temp;Humidity;BMP_temperature;BMP_pressure;BME280_temperature;BME280_humidity;BME280_pressure;Samples;Min_cycle;Max_cycle;Signal;HPM_P1;HPM_P2
2022/05/31 00:01:35;;;;;;;2.87;2.00;;;7.80;99.90;;;;;;4934209;29;20220;-83
2022/05/31 00:04:01;;;;;;;2.40;2.17;;;7.80;99.90;;;;;;4940072;28;20600;-84
2022/05/31 00:06:27;;;;;;;3.10;2.20;;;;;;;;;;4928772;29;20271;-82
2022/05/31 00:08:53;;;;;;;4.97;2.50;;;7.70;99.90;;;;;;4928475;29;20579;-87
2022/05/31 00:11:19;;;;;;;4.50;2.40;;;7.50;99.90;;;;;;4930604;29;20524;-85
2022/05/31 00:13:45;;;;;;;3.17;2.85;;;7.60;99.90;;;;;;4929359;29;20475;-84
2022/05/31 00:16:11;;;;;;;11.40;2.60;;;;;;;;;;4928923;29;20193;-83
2022/05/31 00:18:36;;;;;;;3.35;2.45;;;7.40;99.90;;;;;;4944546;28;20267;-85
2022/05/31 00:21:03;;;;;;;2.70;2.20;;;7.40;99.90;;;;;;4932402;29;20880;-83
2022/05/31 00:23:29;;;;;;;5.72;2.47;;;7.40;99.90;;;;;;4932896;29;20269;-84
2022/05/31 00:25:57;;;;;;;2.43;2.23;;;7.40;99.90;;;;;;4932004;29;20204;-85
2022/05/31 00:28:23;;;;;;;2.80;2.25;;;7.40;99.90;;;;;;4931619;29;20256;-83
2022/05/31 00:30:50;;;;;;;3.83;2.25;;;7.40;99.90;;;;;;4919678;29;20192;-85
2022/05/31 00:33:15;;;;;;;3.40;2.40;;;7.40;99.90;;;;;;4932390;29;20489;-82
2022/05/31 00:35:45;;;;;;;3.13;2.10;;;7.40;99.90;;;;;;4930003;29;20188;-87
2022/05/31 00:38:12;;;;;;;4.13;2.05;;;7.40;99.90;;;;;;4927569;29;20185;-85
2022/05/31 00:40:39;;;;;;;2.05;1.83;;;7.50;99.90;;;;;;4929853;29;20223;-82
2022/05/31 00:43:12;;;;;;;2.30;2.10;;;7.40;99.90;;;;;;4925220;29;20209;-85
2022/05/31 00:45:43;;;;;;;2.63;2.10;;;7.30;99.90;;;;;;4943724;28;20232;-82
2022/05/31 00:48:20;;;;;;;2.88;2.20;;;7.40;99.90;;;;;;4928787;29;20185;-83
2022/05/31 00:50:53;;;;;;;4.63;2.15;;;7.30;99.90;;;;;;4933395;29;20271;-86
2022/05/31 00:53:25;;;;;;;3.05;2.15;;;7.30;99.90;;;;;;4934883;29;20287;-86
2022/05/31 00:55:54;;;;;;;2.92;2.20;;;7.30;99.90;;;;;;4920494;29;20194;-84
2022/05/31 00:58:38;;;;;;;2.53;2.33;;;7.20;99.90;;;;;;4919431;29;20177;-83
2022/05/31 01:01:06;;;;;;;6.68;2.15;;;7.20;99.90;;;;;;4929228;29;20672;-83
2022/05/31 01:03:36;;;;;;;2.83;2.05;;;7.10;99.90;;;;;;4929782;29;20749;-83
2022/05/31 01:06:01;;;;;;;2.15;1.90;;;7.00;99.90;;;;;;4933590;29;20181;-86
2022/05/31 01:08:27;;;;;;;4.30;2.17;;;;;;;;;;4931952;29;20240;-86
2022/05/31 01:10:53;;;;;;;6.60;2.77;;;;;;;;;;4931945;29;20669;-83
2022/05/31 01:13:19;;;;;;;2.40;2.20;;;;;;;;;;4929665;29;20524;-82
2022/05/31 01:15:47;;;;;;;7.38;2.28;;;7.00;99.90;;;;;;4927093;29;20433;-84
2022/05/31 01:18:13;;;;;;;3.03;2.47;;;;;;;;;;4921818;29;20191;-86
2022/05/31 01:20:39;;;;;;;4.18;2.33;;;7.10;99.90;;;;;;4933612;29;20204;-85
2022/05/31 01:23:14;;;;;;;2.40;2.00;;;7.10;99.90;;;;;;4937218;29;20308;-84
2022/05/31 01:25:59;;;;;;;3.45;2.35;;;7.10;99.90;;;;;;4952368;28;20172;-82
2022/05/31 01:28:46;;;;;;;2.58;2.17;;;7.10;99.90;;;;;;4931974;29;20192;-82
2022/05/31 01:31:27;;;;;;;2.83;2.25;;;7.10;99.90;;;;;;4949171;28;20189;-83
2022/05/31 01:34:08;;;;;;;5.05;2.33;;;7.00;99.90;;;;;;4947913;28;20215;-83
2022/05/31 01:36:39;;;;;;;3.63;2.20;;;7.00;99.90;;;;;;4918872;29;20245;-78
2022/05/31 01:39:10;;;;;;;3.33;2.55;;;7.00;99.90;;;;;;4925048;29;20525;-83
2022/05/31 01:41:45;;;;;;;4.05;2.95;;;7.00;99.90;;;;;;4936521;29;20193;-84
2022/05/31 01:44:14;;;;;;;6.45;2.53;;;6.90;99.90;;;;;;4935291;29;20251;-84
2022/05/31 01:46:41;;;;;;;3.03;2.33;;;7.00;99.90;;;;;;4926059;29;21596;-82
2022/05/31 01:49:12;;;;;;;4.72;2.28;;;6.90;99.90;;;;;;4921478;29;20193;-81
2022/05/31 01:51:40;;;;;;;5.10;3.67;;;6.90;99.90;;;;;;4930307;29;20216;-85
2022/05/31 01:54:08;;;;;;;3.55;2.42;;;6.90;99.90;;;;;;4932176;29;20193;-84
2022/05/31 01:56:35;;;;;;;3.08;2.42;;;6.80;99.90;;;;;;4932814;29;20189;-85
2022/05/31 01:59:03;;;;;;;2.33;2.13;;;6.80;99.90;;;;;;4932370;29;20193;-83
2022/05/31 02:01:31;;;;;;;4.50;2.67;;;6.80;99.90;;;;;;4927121;29;20984;-84
2022/05/31 02:03:58;;;;;;;7.90;2.55;;;6.80;99.90;;;;;;4928831;29;20208;-82
2022/05/31 02:06:30;;;;;;;4.63;2.50;;;6.90;99.90;;;;;;4935538;29;20264;-83
2022/05/31 02:08:57;;;;;;;2.47;1.85;;;6.90;99.90;;;;;;4934616;29;20317;-84
2022/05/31 02:11:23;;;;;;;4.47;2.38;;;6.90;99.90;;;;;;4935776;29;20551;-82
2022/05/31 02:13:49;;;;;;;2.97;2.50;;;6.90;99.90;;;;;;4934175;29;20894;-82
2022/05/31 02:16:15;;;;;;;3.97;2.20;;;6.90;99.90;;;;;;4933685;29;20658;-82
2022/05/31 02:21:35;;;;;;;3.05;2.25;;;7.00;99.90;;;;;;4935056;29;20329;-83
2022/05/31 02:24:08;;;;;;;3.58;2.30;;;7.00;99.90;;;;;;4937242;29;20212;-84
2022/05/31 02:26:34;;;;;;;3.38;2.22;;;7.00;99.90;;;;;;4919919;29;20178;-83
2022/05/31 02:28:59;;;;;;;2.90;2.50;;;6.90;99.90;;;;;;4926244;29;20232;-84
2022/05/31 02:31:29;;;;;;;6.20;2.60;;;6.90;99.90;;;;;;4932033;29;20453;-86
2022/05/31 02:33:55;;;;;;;3.17;2.25;;;6.90;99.90;;;;;;4934598;29;21013;-86
2022/05/31 02:36:21;;;;;;;4.53;1.80;;;;;;;;;;4934960;29;20272;-81
2022/05/31 02:38:46;;;;;;;4.50;2.60;;;6.80;99.90;;;;;;4932506;29;20184;-85
2022/05/31 02:41:12;;;;;;;2.70;2.30;;;6.80;99.90;;;;;;4926338;29;20679;-85
2022/05/31 02:43:38;;;;;;;2.50;2.30;;;6.80;99.90;;;;;;4938889;28;20205;-85
2022/05/31 02:46:04;;;;;;;2.60;2.33;;;;;;;;;;4933359;29;20533;-86
2022/05/31 02:48:30;;;;;;;6.90;3.10;;;6.80;99.90;;;;;;4933539;29;20182;-85
2022/05/31 02:50:56;;;;;;;9.27;2.17;;;6.80;99.90;;;;;;4946262;28;20807;-83
2022/05/31 02:53:22;;;;;;;4.50;2.53;;;;;;;;;;4926453;29;20217;-83
2022/05/31 02:55:51;;;;;;;5.10;2.27;;;6.90;99.90;;;;;;4946224;28;20619;-84
2022/05/31 02:58:16;;;;;;;3.30;2.35;;;6.70;99.90;;;;;;4934003;29;20445;-85
2022/05/31 03:00:42;;;;;;;4.00;2.60;;;;;;;;;;4931162;29;20734;-84
2022/05/31 03:03:08;;;;;;;2.70;2.50;;;6.70;99.90;;;;;;4924843;29;20291;-88
2022/05/31 03:05:34;;;;;;;3.50;2.90;;;;;;;;;;4955074;23;20496;-84
2022/05/31 03:08:00;;;;;;;4.82;2.80;;;6.70;99.90;;;;;;4950167;28;20181;-84
2022/05/31 03:10:29;;;;;;;3.97;2.40;;;6.50;99.90;;;;;;4942740;28;21394;-83
2022/05/31 03:12:55;;;;;;;6.97;2.83;;;6.40;99.90;;;;;;4956956;28;20177;-83
2022/05/31 03:15:24;;;;;;;3.73;2.40;;;6.40;99.90;;;;;;4935855;28;20208;-83
2022/05/31 03:17:57;;;;;;;5.00;2.85;;;6.40;99.90;;;;;;4931363;29;20696;-83
2022/05/31 03:20:33;;;;;;;3.95;2.40;;;6.40;99.90;;;;;;4939794;29;20213;-83
2022/05/31 03:23:08;;;;;;;2.55;2.35;;;6.40;99.90;;;;;;4940252;29;20181;-83
2022/05/31 03:25:34;;;;;;;5.93;2.75;;;6.40;99.90;;;;;;4934420;29;20208;-83
2022/05/31 03:28:02;;;;;;;3.53;2.60;;;6.50;99.90;;;;;;4933687;29;20184;-83
2022/05/31 03:30:29;;;;;;;2.90;2.00;;;6.50;99.90;;;;;;4929606;29;20189;-83
2022/05/31 03:32:57;;;;;;;5.10;2.55;;;6.50;99.90;;;;;;4934065;29;20268;-84
2022/05/31 03:35:22;;;;;;;2.58;2.15;;;6.60;99.90;;;;;;4938262;29;20205;-83
2022/05/31 03:37:48;;;;;;;3.57;2.50;;;6.60;99.90;;;;;;4929766;28;20620;-83
2022/05/31 03:40:56;;;;;;;4.30;2.70;;;6.60;99.90;;;;;;4927311;29;20212;-82
2022/05/31 03:43:04;;;;;;;2.47;2.28;;;6.40;99.90;;;;;;4932232;29;20342;-83
2022/05/31 03:45:34;;;;;;;3.67;2.50;;;6.60;99.90;;;;;;4931175;29;20252;-83
2022/05/31 03:48:00;;;;;;;7.15;2.38;;;6.70;99.90;;;;;;4936651;29;20185;-83
2022/05/31 03:50:26;;;;;;;2.80;2.27;;;6.70;99.90;;;;;;4938952;29;20207;-83
2022/05/31 03:52:51;;;;;;;3.50;2.83;;;6.70;99.90;;;;;;4933235;29;20437;-82
2022/05/31 03:55:17;;;;;;;3.20;2.07;;;6.70;99.90;;;;;;4928189;29;20609;-82
2022/05/31 03:57:42;;;;;;;4.90;2.23;;;6.90;99.90;;;;;;4934189;29;20225;-82
2022/05/31 04:00:11;;;;;;;2.90;2.30;;;7.10;99.90;;;;;;4935401;29;20217;-82
2022/05/31 04:02:36;;;;;;;3.70;2.15;;;7.10;99.90;;;;;;4936201;29;20260;-82
2022/05/31 04:05:02;;;;;;;3.83;2.47;;;7.20;99.90;;;;;;4935274;29;20830;-83
2022/05/31 04:07:28;;;;;;;4.30;2.50;;;;;;;;;;4938436;29;20180;-87
2022/05/31 04:09:54;;;;;;;3.20;2.37;;;7.50;99.90;;;;;;4935766;29;20204;-87
2022/05/31 04:12:20;;;;;;;5.83;2.57;;;;;;;;;;4935602;29;20921;-87
2022/05/31 04:14:45;;;;;;;3.03;2.63;;;;;;;;;;4936321;29;20201;-87
2022/05/31 04:17:11;;;;;;;3.17;1.97;;;10.30;99.90;;;;;;4931216;29;20899;-88
2022/05/31 04:19:37;;;;;;;2.60;2.40;;;;;;;;;;4933006;29;20937;-88
2022/05/31 04:22:03;;;;;;;3.73;2.40;;;12.40;99.90;;;;;;4935562;29;20189;-87
2022/05/31 04:24:29;;;;;;;2.17;1.83;;;;;;;;;;4938372;29;20495;-86
2022/05/31 04:26:54;;;;;;;3.17;2.83;;;15.60;99.90;;;;;;4933406;29;20193;-87
2022/05/31 04:29:20;;;;;;;2.90;1.90;;;;;;;;;;4934953;29;20447;-84
2022/05/31 04:31:48;;;;;;;3.45;2.30;;;18.00;99.90;;;;;;4929887;29;20198;-87
2022/05/31 04:34:14;;;;;;;4.27;2.37;;;18.00;99.90;;;;;;4935830;29;20215;-86
2022/05/31 04:36:40;;;;;;;3.73;2.30;;;18.00;99.90;;;;;;4930330;29;20523;-85
2022/05/31 04:39:05;;;;;;;4.80;2.50;;;17.20;99.90;;;;;;4934964;29;20440;-85
2022/05/31 04:41:32;;;;;;;5.20;2.50;;;16.40;99.90;;;;;;4922498;29;20293;-84
2022/05/31 04:43:59;;;;;;;3.63;2.20;;;18.50;99.90;;;;;;4926870;29;20181;-85
2022/05/31 04:46:27;;;;;;;2.90;2.20;;;20.30;99.90;;;;;;4923884;29;20982;-85
2022/05/31 04:48:54;;;;;;;5.13;2.33;;;;;;;;;;4931212;29;20445;-84
2022/05/31 04:51:19;;;;;;;2.80;1.90;;;21.70;99.00;;;;;;4933448;29;20436;-84
2022/05/31 04:53:45;;;;;;;2.13;1.93;;;22.80;93.20;;;;;;4930596;28;20746;-84
2022/05/31 04:56:14;;;;;;;3.63;1.80;;;22.90;93.00;;;;;;4927086;29;20476;-84
2022/05/31 04:58:40;;;;;;;4.50;2.30;;;;;;;;;;4928044;29;20193;-84
2022/05/31 05:01:06;;;;;;;2.83;2.57;;;;;;;;;;4920834;29;20456;-85
2022/05/31 05:03:36;;;;;;;3.30;2.33;;;28.10;65.70;;;;;;4949435;28;21203;-84
2022/05/31 05:06:04;;;;;;;2.97;2.30;;;28.50;59.80;;;;;;4934697;28;20481;-85
2022/05/31 05:08:33;;;;;;;4.10;3.07;;;28.90;58.20;;;;;;4926992;29;20501;-84
2022/05/31 05:11:00;;;;;;;4.83;2.87;;;29.80;56.30;;;;;;4931385;29;20448;-84
2022/05/31 05:13:26;;;;;;;5.63;2.90;;;;;;;;;;4936385;29;20476;-84
2022/05/31 05:15:54;;;;;;;4.43;2.73;;;;;;;;;;4933444;29;20473;-83
2022/05/31 05:18:21;;;;;;;4.23;2.40;;;;;;;;;;4933844;29;20436;-85
2022/05/31 05:20:46;;;;;;;4.37;2.83;;;;;;;;;;4929822;29;20475;-85
2022/05/31 05:23:12;;;;;;;4.00;2.80;;;;;;;;;;4931323;29;20439;-85
2022/05/31 05:25:38;;;;;;;3.67;2.70;;;;;;;;;;4938055;29;21102;-84
2022/05/31 05:30:38;;;;;;;3.90;2.53;;;;;;;;;;4929913;29;20465;-84
2022/05/31 05:30:51;;;;;;;4.30;2.73;;;29.30;50.00;;;;;;4928598;29;20538;-84
2022/05/31 05:33:17;;;;;;;6.37;3.43;;;30.90;48.60;;;;;;4923894;29;20455;-84
2022/05/31 05:35:43;;;;;;;6.27;2.83;;;;;;;;;;4920569;29;20563;-84
2022/05/31 05:38:09;;;;;;;3.47;3.07;;;;;;;;;;4922389;29;20516;-83
2022/05/31 05:40:35;;;;;;;5.67;3.33;;;33.90;44.80;;;;;;4929500;29;20474;-83
2022/05/31 05:43:01;;;;;;;6.00;5.10;;;;;;;;;;4925948;29;20445;-85
2022/05/31 05:45:27;;;;;;;6.57;5.97;;;;;;;;;;4928212;29;20867;-84
2022/05/31 05:47:54;;;;;;;6.30;5.90;;;;;;;;;;4934307;29;20544;-84
2022/05/31 05:50:20;;;;;;;7.77;7.07;;;;;;;;;;4933482;29;20525;-84
2022/05/31 05:52:50;;;;;;;11.07;7.30;;;35.10;38.80;;;;;;4930799;29;20438;-84
2022/05/31 05:55:16;;;;;;;7.87;7.30;;;;;;;;;;4942954;28;20500;-83
2022/05/31 05:57:42;;;;;;;7.93;7.23;;;;;;;;;;4935224;29;20439;-84
2022/05/31 06:00:08;;;;;;;9.20;8.20;;;;;;;;;;4930647;29;20477;-84
2022/05/31 06:02:36;;;;;;;8.17;7.50;;;34.70;37.40;;;;;;4941763;28;20452;-84
2022/05/31 06:05:14;;;;;;;8.00;7.20;;;33.50;42.90;;;;;;4932986;29;20473;-84
2022/05/31 06:07:46;;;;;;;7.40;6.67;;;33.70;38.40;;;;;;4934215;29;20436;-85
2022/05/31 06:10:28;;;;;;;7.50;7.00;;;34.20;37.80;;;;;;4938566;29;20495;-84
2022/05/31 06:13:21;;;;;;;7.97;7.27;;;32.70;37.30;;;;;;4934139;29;20448;-85
2022/05/31 06:15:51;;;;;;;4.13;3.10;;;30.90;40.10;;;;;;4927734;29;20499;-84
2022/05/31 06:18:42;;;;;;;4.00;3.50;;;32.10;39.70;;;;;;4931332;29;20460;-85
2022/05/31 06:21:08;;;;;;;6.67;3.20;;;;;;;;;;4933111;29;20511;-84
2022/05/31 06:23:38;;;;;;;5.23;3.17;;;30.60;40.10;;;;;;4929401;29;20487;-84
2022/05/31 06:26:04;;;;;;;4.03;3.57;;;;;;;;;;4929872;29;20949;-84
2022/05/31 06:28:30;;;;;;;4.30;3.20;;;;;;;;;;4941660;28;20438;-83
2022/05/31 06:30:56;;;;;;;4.30;2.90;;;;;;;;;;4937687;29;20431;-84
2022/05/31 06:33:22;;;;;;;5.57;2.97;;;;;;;;;;4937163;29;20774;-84
2022/05/31 06:35:47;;;;;;;4.67;2.60;;;;;;;;;;4931341;29;20471;-84
2022/05/31 06:38:16;;;;;;;6.50;3.90;;;;;;;;;;4938762;29;20471;-84
2022/05/31 06:40:42;;;;;;;9.43;3.20;;;26.10;48.80;;;;;;4944809;29;21428;-84
2022/05/31 06:43:08;;;;;;;10.70;3.57;;;;;;;;;;4934795;29;20758;-84
2022/05/31 06:45:34;;;;;;;6.63;3.73;;;;;;;;;;4926551;29;20507;-84
2022/05/31 06:48:00;;;;;;;6.40;3.67;;;;;;;;;;4932334;29;20469;-84
2022/05/31 06:50:26;;;;;;;7.07;3.03;;;24.00;52.00;;;;;;4935260;29;20439;-84
2022/05/31 06:58:21;;;;;;;5.20;3.53;;;;;;;;;;4918935;29;20455;-83
2022/05/31 07:00:47;;;;;;;6.90;3.63;;;;;;;;;;4913696;29;20472;-84
2022/05/31 07:03:13;;;;;;;5.80;3.13;;;;;;;;;;4927671;29;20440;-84
2022/05/31 07:05:40;;;;;;;7.40;3.73;;;;;;;;;;4925881;29;21272;-84
2022/05/31 07:08:06;;;;;;;5.00;3.70;;;;;;;;;;4925061;29;22599;-84
2022/05/31 07:10:32;;;;;;;4.63;3.10;;;;;;;;;;4928636;29;20917;-84
2022/05/31 07:12:58;;;;;;;4.80;3.00;;;;;;;;;;4925771;29;20439;-84
2022/05/31 07:15:25;;;;;;;4.30;3.50;;;;;;;;;;4917758;29;20473;-84
2022/05/31 07:17:51;;;;;;;4.10;2.67;;;;;;;;;;4925637;29;21088;-84
2022/05/31 07:20:17;;;;;;;3.40;3.03;;;;;;;;;;4922367;29;20468;-84
2022/05/31 07:22:43;;;;;;;13.17;3.27;;;;;;;;;;4925448;29;20550;-83
2022/05/31 07:25:09;;;;;;;7.07;3.13;;;27.10;49.70;;;;;;4916095;29;21560;-84
2022/05/31 07:27:36;;;;;;;5.63;3.30;;;;;;;;;;4912101;29;20454;-84
2022/05/31 07:30:03;;;;;;;3.40;2.73;;;29.10;49.40;;;;;;4915223;29;20443;-84
2022/05/31 07:32:29;;;;;;;5.50;3.00;;;;;;;;;;4910616;29;21076;-83
2022/05/31 07:34:55;;;;;;;3.73;2.33;;;;;;;;;;4908746;29;20460;-83
2022/05/31 07:37:21;;;;;;;4.70;4.20;;;;;;;;;;4918647;29;21258;-83
2022/05/31 07:39:48;;;;;;;4.63;3.43;;;;;;;;;;4925883;29;20463;-83
2022/05/31 07:42:14;;;;;;;6.90;5.00;;;;;;;;;;4920656;29;20448;-84
2022/05/31 07:44:40;;;;;;;3.63;2.80;;;;;;;;;;4928363;29;20471;-84
2022/05/31 07:47:07;;;;;;;5.10;2.60;;;;;;;;;;4933716;29;20421;-84
2022/05/31 07:49:32;;;;;;;4.03;2.73;;;;;;;;;;4930603;29;20463;-83
2022/05/31 07:51:58;;;;;;;2.53;2.03;;;;;;;;;;4935500;29;20446;-84
2022/05/31 07:54:24;;;;;;;7.00;6.40;;;;;;;;;;4930010;29;20493;-84
2022/05/31 07:56:53;;;;;;;6.83;3.80;;;30.20;44.10;;;;;;4938398;29;20438;-84
2022/05/31 07:59:19;;;;;;;4.30;2.20;;;;;;;;;;4929731;29;21189;-84
2022/05/31 08:01:45;;;;;;;5.10;2.90;;;;;;;;;;4931202;29;20871;-84
2022/05/31 08:04:11;;;;;;;6.93;4.07;;;;;;;;;;4932707;29;20976;-84
2022/05/31 08:06:36;;;;;;;6.00;2.93;;;;;;;;;;4931825;29;20441;-84
2022/05/31 08:09:04;;;;;;;6.40;2.93;;;27.00;49.70;;;;;;4934552;29;20440;-84
2022/05/31 08:11:31;;;;;;;3.80;3.00;;;29.70;67.30;;;;;;4935553;29;20595;-84
2022/05/31 08:13:57;;;;;;;4.10;2.70;;;;;;;;;;4936994;29;20605;-84
2022/05/31 08:16:25;;;;;;;5.73;2.87;;;31.90;43.10;;;;;;4928275;29;20441;-83
2022/05/31 08:18:53;;;;;;;5.80;2.83;;;31.40;57.20;;;;;;4929568;29;20454;-84
2022/05/31 08:21:30;;;;;;;6.13;3.00;;;30.80;44.70;;;;;;4931202;29;20468;-84
2022/05/31 08:24:01;;;;;;;5.90;3.40;;;30.10;45.40;;;;;;4934161;29;20458;-84
2022/05/31 08:26:27;;;;;;;6.10;2.80;;;;;;;;;;4926704;29;20827;-83
2022/05/31 08:28:54;;;;;;;5.57;3.27;;;30.40;47.30;;;;;;4937580;29;20881;-84
2022/05/31 08:31:31;;;;;;;2.20;2.00;;;34.00;42.40;;;;;;4922280;29;20445;-84
2022/05/31 08:33:57;;;;;;;8.03;6.77;;;;;;;;;;4925439;29;20450;-83
2022/05/31 08:36:23;;;;;;;7.77;7.27;;;;;;;;;;4932587;29;21014;-83
2022/05/31 08:38:49;;;;;;;8.83;8.43;;;;;;;;;;4933403;29;20436;-84
2022/05/31 08:41:16;;;;;;;9.63;8.83;;;;;;;;;;4929489;29;20502;-84
2022/05/31 08:43:42;;;;;;;8.53;7.77;;;;;;;;;;4947281;28;20446;-84
2022/05/31 08:46:15;;;;;;;2.70;2.00;;;27.10;45.80;;;;;;4925319;29;20446;-84
2022/05/31 08:48:57;;;;;;;3.40;2.20;;;26.70;56.20;;;;;;4928157;29;20539;-84
2022/05/31 08:51:55;;;;;;;3.37;1.83;;;26.50;45.60;;;;;;4929685;29;20993;-84
2022/05/31 08:57:27;;;;;;;4.43;1.73;;;26.40;48.10;;;;;;4930643;29;20485;-84
2022/05/31 09:00:20;;;;;;;3.10;1.73;;;26.30;49.90;;;;;;4929460;29;20473;-83
2022/05/31 09:02:57;;;;;;;2.60;2.10;;;26.80;45.50;;;;;;4907871;29;20459;-84
2022/05/31 09:05:35;;;;;;;4.43;3.10;;;26.30;49.80;;;;;;4934062;28;20822;-82
2022/05/31 09:08:06;;;;;;;5.53;2.00;;;26.50;50.10;;;;;;4930874;29;20514;-82
2022/05/31 09:10:56;;;;;;;3.73;2.23;;;27.20;47.20;;;;;;4917997;29;20424;-82
2022/05/31 09:13:37;;;;;;;3.60;1.50;;;28.20;49.20;;;;;;4916307;29;20418;-81
2022/05/31 09:16:17;;;;;;;6.03;2.60;;;29.60;45.90;;;;;;4915923;29;20478;-83
2022/05/31 09:18:50;;;;;;;7.37;2.87;;;29.30;45.20;;;;;;4918162;29;20907;-82
2022/05/31 09:21:38;;;;;;;2.80;2.50;;;28.30;46.40;;;;;;4918480;29;20478;-81
2022/05/31 09:24:06;;;;;;;5.07;2.60;;;27.80;46.50;;;;;;4918700;29;20517;-82
2022/05/31 09:26:53;;;;;;;7.37;2.97;;;27.40;47.60;;;;;;4918559;29;20418;-82
2022/05/31 09:29:40;;;;;;;5.33;2.60;;;26.90;49.00;;;;;;4917075;29;20424;-85
2022/05/31 09:32:39;;;;;;;4.07;2.70;;;27.60;51.00;;;;;;4917338;29;20436;-82
2022/05/31 09:35:13;;;;;;;5.97;3.27;;;26.70;59.70;;;;;;4918439;29;20543;-83
2022/05/31 09:38:16;;;;;;;5.33;2.70;;;26.40;49.20;;;;;;4953047;29;21003;-83
2022/05/31 09:40:50;;;;;;;10.07;2.93;;;26.40;50.30;;;;;;4958960;29;20458;-83
2022/05/31 09:43:16;;;;;;;5.03;2.30;;;;;;;;;;4959812;29;20426;-83
2022/05/31 09:46:09;;;;;;;6.90;2.57;;;28.40;49.80;;;;;;4957816;29;20560;-83
2022/05/31 09:48:44;;;;;;;5.03;2.20;;;28.60;47.50;;;;;;4959683;29;20792;-82
2022/05/31 09:51:24;;;;;;;4.67;1.97;;;27.10;46.20;;;;;;4940815;29;20446;-83
2022/05/31 09:59:24;;;;;;;1.90;1.80;;;25.40;59.30;;;;;;4943603;29;20436;-82
2022/05/31 10:01:51;;;;;;;5.73;2.03;;;;;;;;;;4942110;29;20465;-82
2022/05/31 10:04:29;;;;;;;2.67;1.70;;;24.50;56.10;;;;;;4941767;29;20445;-82
2022/05/31 10:07:04;;;;;;;4.70;1.73;;;24.50;59.60;;;;;;4943597;29;20424;-82
2022/05/31 10:09:41;;;;;;;4.23;2.70;;;25.30;58.30;;;;;;4943098;29;20427;-82
2022/05/31 10:12:26;;;;;;;4.00;1.93;;;25.90;50.10;;;;;;4942466;29;20473;-83
2022/05/31 10:14:56;;;;;;;4.00;2.13;;;24.60;56.40;;;;;;4942951;29;20423;-83
2022/05/31 10:17:33;;;;;;;6.30;2.20;;;23.30;50.70;;;;;;4941202;29;20401;-82
2022/05/31 10:20:09;;;;;;;2.83;1.43;;;23.60;51.40;;;;;;4938574;29;20970;-83
2022/05/31 10:22:35;;;;;;;4.07;1.97;;;;;;;;;;4939812;29;20393;-82
2022/05/31 10:25:18;;;;;;;2.73;2.27;;;23.60;51.90;;;;;;4937546;29;20448;-82
2022/05/31 10:27:44;;;;;;;2.73;1.60;;;23.70;52.00;;;;;;4937093;29;20417;-82
2022/05/31 10:30:18;;;;;;;4.50;2.90;;;24.10;50.80;;;;;;4939159;29;20432;-82
2022/05/31 10:32:50;;;;;;;2.73;1.70;;;25.00;52.30;;;;;;4941476;29;20172;-82
2022/05/31 10:35:21;;;;;;;3.00;2.10;;;24.70;50.70;;;;;;4937808;29;20458;-83
2022/05/31 10:37:55;;;;;;;8.67;2.30;;;24.50;49.60;;;;;;4940629;29;20405;-83
2022/05/31 10:40:32;;;;;;;2.87;1.83;;;23.80;50.90;;;;;;4940172;29;20937;-83
2022/05/31 10:43:24;;;;;;;2.70;1.50;;;24.10;49.80;;;;;;4936837;29;20778;-82
2022/05/31 10:45:51;;;;;;;1.73;1.47;;;;;;;;;;4937492;29;20449;-82
2022/05/31 10:48:16;;;;;;;2.30;1.87;;;;;;;;;;4936536;29;20413;-82
2022/05/31 10:51:06;;;;;;;4.73;2.00;;;24.30;55.70;;;;;;4939174;29;20420;-83
2022/05/31 10:53:55;;;;;;;7.40;2.00;;;24.70;49.80;;;;;;4939559;29;20397;-82
2022/05/31 10:56:42;;;;;;;3.77;2.03;;;24.30;49.00;;;;;;4939102;29;20886;-82
2022/05/31 10:59:24;;;;;;;4.20;1.90;;;24.20;48.10;;;;;;4939744;29;20416;-83
2022/05/31 11:01:50;;;;;;;5.10;1.90;;;;;;;;;;4938042;29;20954;-82
2022/05/31 11:04:34;;;;;;;3.60;1.63;;;24.40;50.40;;;;;;4939566;29;20807;-82
2022/05/31 11:07:16;;;;;;;3.90;1.80;;;24.60;49.90;;;;;;4938986;29;20405;-82
2022/05/31 11:13:29;;;;;;;1.83;1.70;;;23.40;50.70;;;;;;4937449;29;20707;-83
2022/05/31 11:16:08;;;;;;;1.77;1.60;;;22.50;50.90;;;;;;4937837;29;20441;-82
2022/05/31 11:19:11;;;;;;;2.70;1.80;;;23.30;56.30;;;;;;4944440;29;20413;-83
2022/05/31 11:21:50;;;;;;;4.30;1.87;;;23.10;51.00;;;;;;4939365;29;20456;-83
2022/05/31 11:24:36;;;;;;;2.87;1.60;;;22.70;50.80;;;;;;4933358;29;20448;-83
2022/05/31 11:27:14;;;;;;;5.03;2.10;;;22.70;53.40;;;;;;4928924;29;20426;-82
2022/05/31 11:29:52;;;;;;;5.00;1.87;;;22.80;55.50;;;;;;4918005;29;20505;-83
2022/05/31 11:32:31;;;;;;;2.13;1.70;;;23.60;54.10;;;;;;4917007;29;20409;-82
2022/05/31 11:35:19;;;;;;;3.40;2.63;;;24.00;49.20;;;;;;4919049;29;20808;-82
2022/05/31 11:37:45;;;;;;;2.50;1.90;;;;;;;;;;4918452;29;20532;-82
2022/05/31 11:40:22;;;;;;;2.80;2.07;;;23.10;51.50;;;;;;4935822;29;20934;-82
2022/05/31 11:43:37;;;;;;;3.77;1.60;;;22.60;55.80;;;;;;4932012;29;20421;-82
2022/05/31 11:46:26;;;;;;;2.80;1.80;;;22.80;57.10;;;;;;4880605;29;20458;-82
2022/05/31 11:49:07;;;;;;;5.60;2.37;;;22.80;51.00;;;;;;4914197;29;20425;-83
2022/05/31 11:52:08;;;;;;;4.20;1.63;;;23.30;56.60;;;;;;4937951;29;20417;-82
2022/05/31 11:55:25;;;;;;;2.67;1.80;;;24.20;53.60;;;;;;4938627;29;20428;-82
2022/05/31 11:58:04;;;;;;;1.60;1.50;;;22.60;46.10;;;;;;4937362;29;20429;-83
2022/05/31 12:00:54;;;;;;;1.77;1.63;;;22.60;48.90;;;;;;4937267;29;20535;-83
2022/05/31 12:03:27;;;;;;;3.50;1.70;;;21.90;47.20;;;;;;4936149;29;20402;-82
2022/05/31 12:06:00;;;;;;;2.40;1.40;;;20.40;47.40;;;;;;4936595;29;20451;-82
2022/05/31 12:08:35;;;;;;;2.10;1.30;;;22.20;49.60;;;;;;4935942;29;20487;-83
2022/05/31 12:11:11;;;;;;;2.47;2.17;;;21.80;49.20;;;;;;4936135;29;20443;-82
2022/05/31 12:13:41;;;;;;;2.90;1.77;;;22.30;50.30;;;;;;4935430;29;20424;-82
2022/05/31 12:16:07;;;;;;;2.23;1.57;;;;;;;;;;4935369;29;20489;-82
2022/05/31 12:18:57;;;;;;;2.23;2.03;;;23.20;47.20;;;;;;4935192;29;20440;-82
2022/05/31 12:21:46;;;;;;;2.83;1.23;;;23.10;47.30;;;;;;4926175;29;20571;-82
2022/05/31 12:24:18;;;;;;;3.73;2.07;;;23.00;46.60;;;;;;4928974;29;20461;-82
2022/05/31 12:27:10;;;;;;;2.03;1.77;;;22.70;48.00;;;;;;4936439;29;20925;-82
2022/05/31 12:29:52;;;;;;;2.27;1.70;;;22.70;52.50;;;;;;4934762;29;20424;-82
2022/05/31 12:32:20;;;;;;;2.90;1.67;;;22.70;48.90;;;;;;4937175;29;20445;-82
2022/05/31 12:34:46;;;;;;;2.30;1.47;;;;;;;;;;4937332;29;20449;-83
2022/05/31 12:37:14;;;;;;;5.00;3.33;;;22.60;48.80;;;;;;4935074;29;20819;-82
2022/05/31 12:39:43;;;;;;;5.63;2.17;;;22.20;48.50;;;;;;4936520;29;20413;-82
2022/05/31 12:42:14;;;;;;;3.00;1.57;;;22.00;48.50;;;;;;4934587;29;20871;-82
2022/05/31 12:44:49;;;;;;;2.43;1.87;;;22.40;50.00;;;;;;4934726;29;20782;-82
2022/05/31 12:47:33;;;;;;;2.00;1.33;;;22.80;47.80;;;;;;4934976;29;20405;-83
2022/05/31 12:50:04;;;;;;;5.83;1.63;;;23.00;45.00;;;;;;4936860;29;20424;-83
2022/05/31 12:55:34;;;;;;;6.80;1.80;;;23.00;60.00;;;;;;4936188;29;20452;-82
2022/05/31 12:58:29;;;;;;;1.50;1.27;;;23.20;45.20;;;;;;4935900;29;20920;-82
2022/05/31 13:00:57;;;;;;;6.90;1.70;;;22.80;46.00;;;;;;4935681;29;20968;-82
2022/05/31 13:03:34;;;;;;;2.60;1.67;;;22.80;44.80;;;;;;4933540;29;20441;-81
2022/05/31 13:06:21;;;;;;;2.50;1.40;;;22.70;45.10;;;;;;4936110;29;20746;-82
2022/05/31 13:08:52;;;;;;;2.53;1.83;;;22.90;51.60;;;;;;4938251;29;20404;-83
2022/05/31 13:20:42;;;;;;;4.00;1.67;;;23.80;45.00;;;;;;4939417;29;20836;-82
2022/05/31 13:23:08;;;;;;;3.80;2.10;;;;;;;;;;4938186;29;20621;-82
2022/05/31 13:25:58;;;;;;;2.50;1.63;;;23.20;50.70;;;;;;4938434;29;20421;-82
2022/05/31 13:28:29;;;;;;;7.03;1.87;;;22.70;45.50;;;;;;4937784;29;20413;-82
2022/05/31 13:31:01;;;;;;;4.67;1.60;;;22.50;48.90;;;;;;4940434;29;20439;-82
2022/05/31 13:33:28;;;;;;;4.50;2.07;;;22.80;44.60;;;;;;4940281;29;20540;-82
2022/05/31 13:36:02;;;;;;;8.37;1.47;;;22.60;51.50;;;;;;4930838;29;20453;-82
2022/05/31 13:38:32;;;;;;;2.60;1.30;;;22.80;45.70;;;;;;4932787;29;20424;-82
2022/05/31 13:41:01;;;;;;;2.33;1.63;;;22.80;45.10;;;;;;4940971;29;20981;-82
2022/05/31 13:43:55;;;;;;;2.80;2.07;;;22.40;48.50;;;;;;4954784;29;20421;-81
2022/05/31 13:46:26;;;;;;;3.07;1.60;;;21.70;44.90;;;;;;4938797;29;20472;-81
2022/05/31 13:49:04;;;;;;;2.13;1.20;;;23.20;46.60;;;;;;4955101;29;20436;-82
2022/05/31 13:51:31;;;;;;;2.00;1.60;;;22.50;45.10;;;;;;4955112;29;20436;-82
2022/05/31 13:54:14;;;;;;;2.73;1.10;;;22.90;44.10;;;;;;4955195;29;20533;-82
2022/05/31 13:56:43;;;;;;;2.90;1.53;;;22.80;44.70;;;;;;4939956;29;20816;-82
2022/05/31 13:59:10;;;;;;;1.70;1.50;;;;;;;;;;4940427;29;20413;-82
2022/05/31 14:01:46;;;;;;;6.20;1.40;;;22.10;43.40;;;;;;4940758;29;20462;-82
2022/05/31 14:04:21;;;;;;;2.83;1.70;;;22.40;45.40;;;;;;4940839;29;21020;-82
2022/05/31 14:06:49;;;;;;;3.87;1.53;;;22.80;44.10;;;;;;4939407;29;20437;-82
2022/05/31 14:09:27;;;;;;;1.73;1.37;;;23.10;46.00;;;;;;4953308;29;20405;-82
2022/05/31 14:11:59;;;;;;;2.90;1.50;;;24.00;50.20;;;;;;4955071;29;20546;-82
2022/05/31 14:14:47;;;;;;;2.00;1.50;;;23.90;47.70;;;;;;4954178;29;20437;-82